MSC Opera — H3FV — position and weather

sailwx.info

Track history (hours):
 
Tides and Currents Weather Stations Pressure Air Temp Water Temp Dewpoint Dewpoint Depression Visibility Wind Speed Wind Dir Waves Ship Positions

MSC Opera

Operator: Mediterranean Shipping Company

Last reported at 2019-Jan-21 21:55 UTC. Time now 2019-Jan-23 22:09 UTC.
Position N 20°36' W 086°55'.

Length 275 m; draft 6.8 m.

Type: Ship. MMSI: 357627000.

Date/timePositionNaut miles runAvg speedWind from/ knotsBaromVisibWave heightAir tempDewpointWater temp
2019-Jan-21 21:55N 20°36' W 086°55'513.0
2019-Jan-21 21:31N 20°31' W 086°57'1 1.3
2019-Jan-21 20:59N 20°31' W 086°57'0 0.0
2019-Jan-21 20:29N 20°31' W 086°57'0 0.0
2019-Jan-21 19:58N 20°31' W 086°57'0 0.0
2019-Jan-21 19:28N 20°31' W 086°57'0 0.0
2019-Jan-21 18:58N 20°31' W 086°57'0 0.0
2019-Jan-21 18:28N 20°31' W 086°57'0 0.0
2019-Jan-21 17:58N 20°31' W 086°57'0 0.0
2019-Jan-21 17:30N 20°31' W 086°57'0 0.0
2019-Jan-21 17:00N 20°31' W 086°57'0 0.0
2019-Jan-21 16:30N 20°31' W 086°57'0 0.0
2019-Jan-21 16:00N 20°31' W 086°57'0 0.0
2019-Jan-21 15:29N 20°31' W 086°57'0 0.0
2019-Jan-21 14:59N 20°31' W 086°57'0 0.0
2019-Jan-21 14:29N 20°31' W 086°57'0 0.0
2019-Jan-21 13:59N 20°31' W 086°57'0 0.0
2019-Jan-21 13:29N 20°31' W 086°57'0 0.0
2019-Jan-21 12:58N 20°31' W 086°57'0 0.0
2019-Jan-21 12:28N 20°31' W 086°57'0 0.0
2019-Jan-21 11:55N 20°31' W 086°57'0 0.0
2019-Jan-21 11:29N 20°31' W 086°57'0 1.0
2019-Jan-21 11:01N 20°31' W 086°58'4 8.4
2019-Jan-21 10:31N 20°28' W 087°01'5 9.5
2019-Jan-21 10:01N 20°24' W 087°04'  
2019-Jan-15 00:07N 20°37' W 086°54'417.8
2019-Jan-14 23:53N 20°34' W 086°57'3 8.6
2019-Jan-14 23:31N 20°31' W 086°58'0 0.3
2019-Jan-14 22:59N 20°31' W 086°57'0 0.0
2019-Jan-14 22:28N 20°31' W 086°57'0 0.0
2019-Jan-14 21:58N 20°31' W 086°57'0 0.0
2019-Jan-14 21:28N 20°31' W 086°57'0 0.0
2019-Jan-14 20:58N 20°31' W 086°57'0 0.0
2019-Jan-14 20:25N 20°31' W 086°57'0 0.0
2019-Jan-14 20:00N 20°31' W 086°57'0 0.0
2019-Jan-14 19:30N 20°31' W 086°57'0 0.0
2019-Jan-14 19:00N 20°31' W 086°57'0 0.0
2019-Jan-14 18:30N 20°31' W 086°57'0 0.0
2019-Jan-14 18:00N 20°31' W 086°57'0 0.0
2019-Jan-14 17:29N 20°31' W 086°57'0 0.0
2019-Jan-14 16:59N 20°31' W 086°57'0 0.0
2019-Jan-14 16:29N 20°31' W 086°57'0 0.0
2019-Jan-14 15:59N 20°31' W 086°57'0 0.0
2019-Jan-14 15:28N 20°31' W 086°57'0 0.0
2019-Jan-14 14:58N 20°31' W 086°57'0 0.0
2019-Jan-14 14:30N 20°31' W 086°57'1 2.5
2019-Jan-14 14:00N 20°32' W 086°57'510.0
2019-Jan-14 13:30N 20°36' W 086°55'  
Track history (hours):
 
Tides and Currents Weather Stations Pressure Air Temp Water Temp Dewpoint Dewpoint Depression Visibility Wind Speed Wind Dir Waves Ship Positions

MSC Opera

Operator: Mediterranean Shipping Company

Last reported at 2019-Jan-21 21:55 UTC. Time now 2019-Jan-23 22:09 UTC.
Position N 20°36' W 086°55'.

Length 275 m; draft 6.8 m.

Type: Ship. MMSI: 357627000.

Date/timePositionNaut miles runAvg speedWind from/ knotsBaromVisibWave heightAir tempDewpointWater temp
2019-Jan-21 21:55N 20°36' W 086°55'513.0
2019-Jan-21 21:31N 20°31' W 086°57'1 1.3
2019-Jan-21 20:59N 20°31' W 086°57'0 0.0
2019-Jan-21 20:29N 20°31' W 086°57'0 0.0
2019-Jan-21 19:58N 20°31' W 086°57'0 0.0
2019-Jan-21 19:28N 20°31' W 086°57'0 0.0
2019-Jan-21 18:58N 20°31' W 086°57'0 0.0
2019-Jan-21 18:28N 20°31' W 086°57'0 0.0
2019-Jan-21 17:58N 20°31' W 086°57'0 0.0
2019-Jan-21 17:30N 20°31' W 086°57'0 0.0
2019-Jan-21 17:00N 20°31' W 086°57'0 0.0
2019-Jan-21 16:30N 20°31' W 086°57'0 0.0
2019-Jan-21 16:00N 20°31' W 086°57'0 0.0
2019-Jan-21 15:29N 20°31' W 086°57'0 0.0
2019-Jan-21 14:59N 20°31' W 086°57'0 0.0
2019-Jan-21 14:29N 20°31' W 086°57'0 0.0
2019-Jan-21 13:59N 20°31' W 086°57'0 0.0
2019-Jan-21 13:29N 20°31' W 086°57'0 0.0
2019-Jan-21 12:58N 20°31' W 086°57'0 0.0
2019-Jan-21 12:28N 20°31' W 086°57'0 0.0
2019-Jan-21 11:55N 20°31' W 086°57'0 0.0
2019-Jan-21 11:29N 20°31' W 086°57'0 1.0
2019-Jan-21 11:01N 20°31' W 086°58'4 8.4
2019-Jan-21 10:31N 20°28' W 087°01'5 9.5
2019-Jan-21 10:01N 20°24' W 087°04'  
2019-Jan-15 00:07N 20°37' W 086°54'417.8
2019-Jan-14 23:53N 20°34' W 086°57'3 8.6
2019-Jan-14 23:31N 20°31' W 086°58'0 0.3
2019-Jan-14 22:59N 20°31' W 086°57'0 0.0
2019-Jan-14 22:28N 20°31' W 086°57'0 0.0
2019-Jan-14 21:58N 20°31' W 086°57'0 0.0
2019-Jan-14 21:28N 20°31' W 086°57'0 0.0
2019-Jan-14 20:58N 20°31' W 086°57'0 0.0
2019-Jan-14 20:25N 20°31' W 086°57'0 0.0
2019-Jan-14 20:00N 20°31' W 086°57'0 0.0
2019-Jan-14 19:30N 20°31' W 086°57'0 0.0
2019-Jan-14 19:00N 20°31' W 086°57'0 0.0
2019-Jan-14 18:30N 20°31' W 086°57'0 0.0
2019-Jan-14 18:00N 20°31' W 086°57'0 0.0
2019-Jan-14 17:29N 20°31' W 086°57'0 0.0
2019-Jan-14 16:59N 20°31' W 086°57'0 0.0
2019-Jan-14 16:29N 20°31' W 086°57'0 0.0
2019-Jan-14 15:59N 20°31' W 086°57'0 0.0
2019-Jan-14 15:28N 20°31' W 086°57'0 0.0
2019-Jan-14 14:58N 20°31' W 086°57'0 0.0
2019-Jan-14 14:30N 20°31' W 086°57'1 2.5
2019-Jan-14 14:00N 20°32' W 086°57'510.0
2019-Jan-14 13:30N 20°36' W 086°55'  

Dump ship's entire track history